WetterOnline ( https://www.wetteronline.de )

Wetter aktuell Frauenstein

Aktuelles Wetter: Zinnwald (882m)

6-stündlich | Neueste Meldungen
Ortszeit Temperatur Wetter
Sa, 02.07. 2:00 8.7° C Nebel
Fr, 01.07. 20:00 10.5° C leichter Regen
Fr, 01.07. 14:00 13.5° C Regen
Fr, 01.07. 8:00 18.4° C wolkenlos
Fr, 01.07. 2:00 17.3° C wolkenlos
Do, 30.06. 20:00 20.4° C wolkenlos
Do, 30.06. 14:00 19.6° C wolkig
Do, 30.06. 8:00 16.0° C Nebel
Ortszeit Temperatur Wetter
Sa, 02.07. 4:00 8.9° C wolkenlos
Sa, 02.07. 3:50 8.9° C wolkenlos
Sa, 02.07. 3:40 8.9° C wolkenlos
Sa, 02.07. 3:30 8.9° C fast wolkenlos
Sa, 02.07. 3:20 8.9° C fast wolkenlos
Sa, 02.07. 3:10 8.9° C leicht bewölkt
Sa, 02.07. 3:00 9.0° C Nebel
Sa, 02.07. 2:30 8.8° C wolkig
Sa, 02.07. 2:00 8.7° C Nebel
Sa, 02.07. 1:30 8.7° C bewölkt
Sa, 02.07. 1:00 8.7° C wolkig
Ortszeit Relative Feuchte Sichtweite
Sa, 02.07. 2:00 98% 6 km
Fr, 01.07. 20:00 98% 9 km
Fr, 01.07. 14:00 98% 2.9 km
Fr, 01.07. 8:00 78% 50 km
Fr, 01.07. 2:00 90% 35 km
Do, 30.06. 20:00 73% 45 km
Do, 30.06. 14:00 86% 8 km
Do, 30.06. 8:00 100% 0.2 km
Ortszeit Relative Feuchte Sichtweite
Sa, 02.07. 4:00 97% 18 km
Sa, 02.07. 3:50 97% -
Sa, 02.07. 3:40 97% -
Sa, 02.07. 3:30 97% 15 km
Sa, 02.07. 3:20 97% -
Sa, 02.07. 3:10 97% -
Sa, 02.07. 3:00 98% 13 km
Sa, 02.07. 2:30 98% 8 km
Sa, 02.07. 2:00 98% 6 km
Sa, 02.07. 1:30 98% 2.2 km
Sa, 02.07. 1:00 98% 4.1 km
Ortszeit Niederschlagsmenge Niederschlagsart
Sa, 02.07. 2:00 0.8 l/m2 in 6 Std. Regen
Fr, 01.07. 20:00 2 l/m2 in 12 Std. Regen
Fr, 01.07. 14:00 2 l/m2 in 6 Std. Regen
Fr, 01.07. 8:00 0.0 l/m2 in 12 Std. -
Fr, 01.07. 2:00 0.0 l/m2 in 6 Std. -
Do, 30.06. 20:00 0.0 l/m2 in 12 Std. -
Do, 30.06. 14:00 0.0 l/m2 in 6 Std. -
Do, 30.06. 8:00 0.7 l/m2 in 12 Std. Regen
Ortszeit Niederschlagsmenge Niederschlagsart
Sa, 02.07. 4:00 0.1 l/m2 in 1 Std. -
Sa, 02.07. 3:50 keine Meldung -
Sa, 02.07. 3:40 keine Meldung -
Sa, 02.07. 3:30 0.1 l/m2 in 1 Std. -
Sa, 02.07. 3:20 keine Meldung -
Sa, 02.07. 3:10 keine Meldung -
Sa, 02.07. 3:00 0.1 l/m2 in 1 Std. -
Sa, 02.07. 2:30 0.0 l/m2 in 1 Std. -
Sa, 02.07. 2:00 0.1 l/m2 in 1 Std. Regen
Sa, 02.07. 1:30 0.0 l/m2 in 1 Std. -
Sa, 02.07. 1:00 0.0 l/m2 in 1 Std. -
Ortszeit Stärke Spitze Richtung
km/h Bft. km/h Grad Sektor
Sa, 02.07. 2:00 17 3 41 270° W
Fr, 01.07. 20:00 17 3 44 280° W
Fr, 01.07. 14:00 19 3 46 260° W
Fr, 01.07. 8:00 22 4 40 260° W
Fr, 01.07. 2:00 18 3 22 140° SO
Do, 30.06. 20:00 14 3 29 130° SO
Do, 30.06. 14:00 22 4 32 140° SO
Do, 30.06. 8:00 11 2 20 170° S
Ortszeit Stärke Spitze Richtung
km/h Bft. km/h Grad Sektor
Sa, 02.07. 4:00 19 3 28 270° W
Sa, 02.07. 3:50 19 3 - 270° W
Sa, 02.07. 3:40 18 3 - 270° W
Sa, 02.07. 3:30 18 3 29 270° W
Sa, 02.07. 3:20 18 3 - 270° W
Sa, 02.07. 3:10 17 3 - 270° W
Sa, 02.07. 3:00 17 3 31 270° W
Sa, 02.07. 2:30 17 3 26 270° W
Sa, 02.07. 2:00 17 3 24 270° W
Sa, 02.07. 1:30 14 3 25 280° W
Sa, 02.07. 1:00 14 3 29 280° W
Ortszeit Untergrenze Bedeckung Gattung
total tief tief mittel hoch
Sa, 02.07. 2:00 30 m 7/8 7/8 - - -
Fr, 01.07. 20:00 60 m 8/8 8/8 - - -
Fr, 01.07. 14:00 30 m 8/8 8/8 - - -
Fr, 01.07. 8:00 - 0/8 0/8 - - -
Fr, 01.07. 2:00 - 0/8 0/8 - - -
Do, 30.06. 20:00 - 0/8 0/8 - - -
Do, 30.06. 14:00 120 m 5/8 5/8 - - -
Do, 30.06. 8:00 <30 m 8/8 0/8 - - -
Ortszeit Bedeckungsgrad in Achtel und Wolkenuntergrenze
Sa, 02.07. 4:00 keine Wolken
Sa, 02.07. 3:50 keine Wolken
Sa, 02.07. 3:40 keine Wolken
Sa, 02.07. 3:30 1(30m)
Sa, 02.07. 3:20 1(30m)
Sa, 02.07. 3:10 3
Sa, 02.07. 3:00 7(30m)
Sa, 02.07. 2:30 5(30m)
Sa, 02.07. 2:00 7(30m)
Sa, 02.07. 1:30 7(30m)
Sa, 02.07. 1:00 5(30m)
Ortszeit Stationsdruck (hPa) Tendenz (hPa in 3 Std.)
Sa, 02.07. 2:00 922 + 0,4
Fr, 01.07. 20:00 919 + 1,0
Fr, 01.07. 14:00 916 + 0,6
Fr, 01.07. 8:00 915 + 1,0
Fr, 01.07. 2:00 914 - 0,5
Do, 30.06. 20:00 914 - 0,5
Do, 30.06. 14:00 915 - 0,2
Do, 30.06. 8:00 915 + 0,4
Ortszeit Stationsdruck (hPa) Tendenz (hPa in 3 Std.)
Sa, 02.07. 4:00 922 + 0,2
Sa, 02.07. 3:50 922 keine Meldung
Sa, 02.07. 3:40 922 keine Meldung
Sa, 02.07. 3:30 922 0,0
Sa, 02.07. 3:20 922 keine Meldung
Sa, 02.07. 3:10 922 keine Meldung
Sa, 02.07. 3:00 922 + 0,2
Sa, 02.07. 2:30 922 + 0,3
Sa, 02.07. 2:00 922 + 0,4
Sa, 02.07. 1:30 922 + 0,6
Sa, 02.07. 1:00 922 + 1,0
Ortszeit Schneehöhe (cm)
Sa, 02.07. 2:00 0
Fr, 01.07. 20:00 0
Fr, 01.07. 14:00 0
Fr, 01.07. 8:00 0
Fr, 01.07. 2:00 0
Do, 30.06. 20:00 0
Do, 30.06. 14:00 0
Do, 30.06. 8:00 0
Ortszeit Schneehöhe (cm)
Sa, 02.07. 4:00 0
Sa, 02.07. 3:50 0
Sa, 02.07. 3:40 0
Sa, 02.07. 3:30 0
Sa, 02.07. 3:20 0
Sa, 02.07. 3:10 0
Sa, 02.07. 3:00 0
Sa, 02.07. 2:30 0
Sa, 02.07. 2:00 0
Sa, 02.07. 1:30 0
Sa, 02.07. 1:00 0
Link zu dieser Seite / Seite empfehlen

Das Wetter in ...